sensor_id;sensor_type;location;lat;lon;timestamp;P1;durP1;ratioP1;P2;durP2;ratioP2
44973;SDS011;60981;50.720;11.342;2022-07-15T00:00:05;4.38;;;0.60;;
44973;SDS011;60981;50.720;11.342;2022-07-15T00:01:08;6.80;;;0.50;;
44973;SDS011;60981;50.720;11.342;2022-07-15T00:02:13;5.45;;;0.52;;
44973;SDS011;60981;50.720;11.342;2022-07-15T00:03:16;4.32;;;0.50;;
44973;SDS011;60981;50.720;11.342;2022-07-15T00:04:19;3.42;;;0.70;;
44973;SDS011;60981;50.720;11.342;2022-07-15T00:05:21;4.57;;;0.90;;
44973;SDS011;60981;50.720;11.342;2022-07-15T00:06:22;4.68;;;0.77;;
44973;SDS011;60981;50.720;11.342;2022-07-15T00:07:25;4.80;;;1.08;;
44973;SDS011;60981;50.720;11.342;2022-07-15T00:08:27;3.80;;;0.60;;
44973;SDS011;60981;50.720;11.342;2022-07-15T00:09:30;3.20;;;0.75;;
44973;SDS011;60981;50.720;11.342;2022-07-15T00:10:52;3.72;;;0.90;;
44973;SDS011;60981;50.720;11.342;2022-07-15T00:11:53;3.90;;;0.60;;
44973;SDS011;60981;50.720;11.342;2022-07-15T00:13:59;3.30;;;0.55;;
44973;SDS011;60981;50.720;11.342;2022-07-15T00:15:03;4.40;;;0.80;;
44973;SDS011;60981;50.720;11.342;2022-07-15T00:16:06;4.05;;;0.70;;
44973;SDS011;60981;50.720;11.342;2022-07-15T00:17:07;3.47;;;0.70;;
44973;SDS011;60981;50.720;11.342;2022-07-15T00:18:09;5.05;;;0.80;;
44973;SDS011;60981;50.720;11.342;2022-07-15T00:19:14;3.58;;;0.77;;
44973;SDS011;60981;50.720;11.342;2022-07-15T00:20:16;5.82;;;1.10;;
44973;SDS011;60981;50.720;11.342;2022-07-15T00:21:19;4.72;;;1.25;;
44973;SDS011;60981;50.720;11.342;2022-07-15T00:22:21;5.47;;;0.82;;
44973;SDS011;60981;50.720;11.342;2022-07-15T00:23:23;4.57;;;1.00;;
44973;SDS011;60981;50.720;11.342;2022-07-15T00:24:25;5.68;;;0.80;;
44973;SDS011;60981;50.720;11.342;2022-07-15T00:25:28;6.07;;;1.10;;
44973;SDS011;60981;50.720;11.342;2022-07-15T00:26:30;4.22;;;0.80;;
44973;SDS011;60981;50.720;11.342;2022-07-15T00:27:59;6.15;;;1.00;;
44973;SDS011;60981;50.720;11.342;2022-07-15T00:29:02;4.07;;;1.05;;
44973;SDS011;60981;50.720;11.342;2022-07-15T00:30:04;5.80;;;1.25;;
44973;SDS011;60981;50.720;11.342;2022-07-15T00:31:10;5.18;;;0.90;;
44973;SDS011;60981;50.720;11.342;2022-07-15T00:32:12;2.72;;;0.50;;
44973;SDS011;60981;50.720;11.342;2022-07-15T00:33:15;3.78;;;0.70;;
44973;SDS011;60981;50.720;11.342;2022-07-15T00:34:17;3.80;;;0.80;;
44973;SDS011;60981;50.720;11.342;2022-07-15T00:35:19;3.38;;;0.70;;
44973;SDS011;60981;50.720;11.342;2022-07-15T00:36:22;5.47;;;0.80;;
44973;SDS011;60981;50.720;11.342;2022-07-15T00:37:25;3.33;;;0.60;;
44973;SDS011;60981;50.720;11.342;2022-07-15T00:38:27;3.05;;;0.65;;
44973;SDS011;60981;50.720;11.342;2022-07-15T00:39:29;5.13;;;0.90;;
44973;SDS011;60981;50.720;11.342;2022-07-15T00:40:31;3.88;;;0.68;;
44973;SDS011;60981;50.720;11.342;2022-07-15T00:41:40;5.05;;;1.27;;
44973;SDS011;60981;50.720;11.342;2022-07-15T00:42:43;5.80;;;1.02;;
44973;SDS011;60981;50.720;11.342;2022-07-15T00:43:49;4.35;;;0.85;;
44973;SDS011;60981;50.720;11.342;2022-07-15T00:44:51;2.67;;;0.60;;
44973;SDS011;60981;50.720;11.342;2022-07-15T00:45:53;4.68;;;1.00;;
44973;SDS011;60981;50.720;11.342;2022-07-15T00:46:56;4.40;;;0.90;;
44973;SDS011;60981;50.720;11.342;2022-07-15T00:48:02;3.60;;;0.90;;
44973;SDS011;60981;50.720;11.342;2022-07-15T00:49:10;2.90;;;0.50;;
44973;SDS011;60981;50.720;11.342;2022-07-15T00:50:16;3.90;;;0.80;;
44973;SDS011;60981;50.720;11.342;2022-07-15T00:51:20;2.65;;;0.77;;
44973;SDS011;60981;50.720;11.342;2022-07-15T00:52:23;6.18;;;1.20;;
44973;SDS011;60981;50.720;11.342;2022-07-15T00:53:28;5.85;;;0.90;;
44973;SDS011;60981;50.720;11.342;2022-07-15T00:54:33;4.07;;;0.80;;
44973;SDS011;60981;50.720;11.342;2022-07-15T00:55:40;2.72;;;0.77;;
44973;SDS011;60981;50.720;11.342;2022-07-15T00:56:48;7.30;;;0.85;;
44973;SDS011;60981;50.720;11.342;2022-07-15T00:57:55;3.22;;;0.65;;
44973;SDS011;60981;50.720;11.342;2022-07-15T00:59:01;4.40;;;1.05;;
44973;SDS011;60981;50.720;11.342;2022-07-15T01:00:05;4.18;;;1.00;;
44973;SDS011;60981;50.720;11.342;2022-07-15T01:01:10;6.28;;;1.00;;
44973;SDS011;60981;50.720;11.342;2022-07-15T01:02:13;3.40;;;0.90;;
44973;SDS011;60981;50.720;11.342;2022-07-15T01:03:18;4.90;;;0.68;;
44973;SDS011;60981;50.720;11.342;2022-07-15T01:04:21;2.28;;;1.05;;
44973;SDS011;60981;50.720;11.342;2022-07-15T01:05:25;3.03;;;0.65;;
44973;SDS011;60981;50.720;11.342;2022-07-15T01:06:28;4.10;;;1.02;;
44973;SDS011;60981;50.720;11.342;2022-07-15T01:07:32;4.45;;;0.80;;
44973;SDS011;60981;50.720;11.342;2022-07-15T01:08:35;3.90;;;0.90;;
44973;SDS011;60981;50.720;11.342;2022-07-15T01:09:37;3.22;;;0.82;;
44973;SDS011;60981;50.720;11.342;2022-07-15T01:10:39;5.10;;;0.80;;
44973;SDS011;60981;50.720;11.342;2022-07-15T01:11:42;2.85;;;1.15;;
44973;SDS011;60981;50.720;11.342;2022-07-15T01:12:45;3.20;;;0.85;;
44973;SDS011;60981;50.720;11.342;2022-07-15T01:13:48;3.28;;;0.90;;
44973;SDS011;60981;50.720;11.342;2022-07-15T01:14:49;5.32;;;1.48;;
44973;SDS011;60981;50.720;11.342;2022-07-15T01:15:53;4.97;;;0.77;;
44973;SDS011;60981;50.720;11.342;2022-07-15T01:16:56;3.42;;;0.90;;
44973;SDS011;60981;50.720;11.342;2022-07-15T01:17:59;4.70;;;0.90;;
44973;SDS011;60981;50.720;11.342;2022-07-15T01:19:03;6.10;;;1.08;;
44973;SDS011;60981;50.720;11.342;2022-07-15T01:20:06;4.55;;;0.77;;
44973;SDS011;60981;50.720;11.342;2022-07-15T01:21:09;5.32;;;1.02;;
44973;SDS011;60981;50.720;11.342;2022-07-15T01:22:11;2.92;;;0.80;;
44973;SDS011;60981;50.720;11.342;2022-07-15T01:24:18;3.65;;;0.73;;
44973;SDS011;60981;50.720;11.342;2022-07-15T01:25:20;4.15;;;1.38;;
44973;SDS011;60981;50.720;11.342;2022-07-15T01:26:23;3.92;;;0.93;;
44973;SDS011;60981;50.720;11.342;2022-07-15T01:27:25;4.20;;;1.00;;
44973;SDS011;60981;50.720;11.342;2022-07-15T01:28:28;4.43;;;0.90;;
44973;SDS011;60981;50.720;11.342;2022-07-15T01:29:31;4.65;;;0.95;;
44973;SDS011;60981;50.720;11.342;2022-07-15T01:30:33;5.68;;;0.88;;
44973;SDS011;60981;50.720;11.342;2022-07-15T01:31:35;4.78;;;1.00;;
44973;SDS011;60981;50.720;11.342;2022-07-15T01:32:37;6.13;;;0.93;;
44973;SDS011;60981;50.720;11.342;2022-07-15T01:33:39;4.60;;;1.25;;
44973;SDS011;60981;50.720;11.342;2022-07-15T01:34:41;3.97;;;0.90;;
44973;SDS011;60981;50.720;11.342;2022-07-15T01:35:44;2.97;;;0.73;;
44973;SDS011;60981;50.720;11.342;2022-07-15T01:36:46;6.15;;;1.25;;
44973;SDS011;60981;50.720;11.342;2022-07-15T01:37:49;4.63;;;1.05;;
44973;SDS011;60981;50.720;11.342;2022-07-15T01:38:51;5.25;;;1.27;;
44973;SDS011;60981;50.720;11.342;2022-07-15T01:40:13;3.83;;;0.98;;
44973;SDS011;60981;50.720;11.342;2022-07-15T01:41:15;3.45;;;1.00;;
44973;SDS011;60981;50.720;11.342;2022-07-15T01:42:18;4.28;;;1.00;;
44973;SDS011;60981;50.720;11.342;2022-07-15T01:43:20;4.47;;;0.88;;
44973;SDS011;60981;50.720;11.342;2022-07-15T01:44:23;3.42;;;0.88;;
44973;SDS011;60981;50.720;11.342;2022-07-15T01:45:25;5.50;;;1.00;;
44973;SDS011;60981;50.720;11.342;2022-07-15T01:46:27;6.50;;;1.17;;
44973;SDS011;60981;50.720;11.342;2022-07-15T01:47:30;9.85;;;1.20;;
44973;SDS011;60981;50.720;11.342;2022-07-15T01:48:34;3.35;;;1.10;;
44973;SDS011;60981;50.720;11.342;2022-07-15T01:49:54;6.15;;;0.80;;
44973;SDS011;60981;50.720;11.342;2022-07-15T01:50:56;7.25;;;1.30;;
44973;SDS011;60981;50.720;11.342;2022-07-15T01:52:00;4.20;;;1.30;;
44973;SDS011;60981;50.720;11.342;2022-07-15T01:53:03;6.55;;;1.30;;
44973;SDS011;60981;50.720;11.342;2022-07-15T01:55:08;3.40;;;1.20;;
44973;SDS011;60981;50.720;11.342;2022-07-15T01:56:11;4.70;;;1.20;;
44973;SDS011;60981;50.720;11.342;2022-07-15T01:57:13;6.38;;;1.00;;
44973;SDS011;60981;50.720;11.342;2022-07-15T01:58:16;4.82;;;1.30;;
44973;SDS011;60981;50.720;11.342;2022-07-15T01:59:19;5.15;;;1.17;;
44973;SDS011;60981;50.720;11.342;2022-07-15T02:00:26;5.05;;;1.10;;
44973;SDS011;60981;50.720;11.342;2022-07-15T02:01:28;2.85;;;0.80;;
44973;SDS011;60981;50.720;11.342;2022-07-15T02:02:30;6.82;;;1.17;;
44973;SDS011;60981;50.720;11.342;2022-07-15T02:03:33;3.28;;;1.02;;
44973;SDS011;60981;50.720;11.342;2022-07-15T02:04:35;5.78;;;1.05;;
44973;SDS011;60981;50.720;11.342;2022-07-15T02:05:39;6.15;;;0.90;;
44973;SDS011;60981;50.720;11.342;2022-07-15T02:06:42;5.28;;;1.45;;
44973;SDS011;60981;50.720;11.342;2022-07-15T02:07:44;4.30;;;1.20;;
44973;SDS011;60981;50.720;11.342;2022-07-15T02:08:47;3.67;;;1.08;;
44973;SDS011;60981;50.720;11.342;2022-07-15T02:09:50;4.45;;;1.10;;
44973;SDS011;60981;50.720;11.342;2022-07-15T02:10:52;3.85;;;0.95;;
44973;SDS011;60981;50.720;11.342;2022-07-15T02:11:54;3.03;;;1.23;;
44973;SDS011;60981;50.720;11.342;2022-07-15T02:12:56;4.88;;;1.20;;
44973;SDS011;60981;50.720;11.342;2022-07-15T02:14:00;5.15;;;1.13;;
44973;SDS011;60981;50.720;11.342;2022-07-15T02:15:03;2.92;;;0.93;;
44973;SDS011;60981;50.720;11.342;2022-07-15T02:16:06;6.88;;;1.20;;
44973;SDS011;60981;50.720;11.342;2022-07-15T02:17:08;3.25;;;1.13;;
44973;SDS011;60981;50.720;11.342;2022-07-15T02:18:11;5.03;;;1.20;;
44973;SDS011;60981;50.720;11.342;2022-07-15T02:19:13;2.63;;;0.90;;
44973;SDS011;60981;50.720;11.342;2022-07-15T02:20:15;4.65;;;1.25;;
44973;SDS011;60981;50.720;11.342;2022-07-15T02:21:17;3.92;;;1.17;;
44973;SDS011;60981;50.720;11.342;2022-07-15T02:22:19;3.67;;;1.30;;
44973;SDS011;60981;50.720;11.342;2022-07-15T02:23:21;4.75;;;1.50;;
44973;SDS011;60981;50.720;11.342;2022-07-15T02:24:24;4.80;;;1.10;;
44973;SDS011;60981;50.720;11.342;2022-07-15T02:25:26;5.78;;;1.27;;
44973;SDS011;60981;50.720;11.342;2022-07-15T02:26:36;7.47;;;1.00;;
44973;SDS011;60981;50.720;11.342;2022-07-15T02:27:38;5.30;;;1.25;;
44973;SDS011;60981;50.720;11.342;2022-07-15T02:29:43;5.18;;;1.30;;
44973;SDS011;60981;50.720;11.342;2022-07-15T02:30:45;6.20;;;0.93;;
44973;SDS011;60981;50.720;11.342;2022-07-15T02:31:47;4.25;;;1.10;;
44973;SDS011;60981;50.720;11.342;2022-07-15T02:32:49;3.58;;;1.35;;
44973;SDS011;60981;50.720;11.342;2022-07-15T02:33:51;4.40;;;1.00;;
44973;SDS011;60981;50.720;11.342;2022-07-15T02:34:54;5.72;;;1.25;;
44973;SDS011;60981;50.720;11.342;2022-07-15T02:35:58;4.80;;;1.25;;
44973;SDS011;60981;50.720;11.342;2022-07-15T02:37:00;3.75;;;1.20;;
44973;SDS011;60981;50.720;11.342;2022-07-15T02:38:04;4.30;;;0.90;;
44973;SDS011;60981;50.720;11.342;2022-07-15T02:39:06;2.38;;;1.15;;
44973;SDS011;60981;50.720;11.342;2022-07-15T02:40:08;8.57;;;1.77;;
44973;SDS011;60981;50.720;11.342;2022-07-15T02:41:11;4.28;;;1.20;;
44973;SDS011;60981;50.720;11.342;2022-07-15T02:42:17;4.22;;;1.25;;
44973;SDS011;60981;50.720;11.342;2022-07-15T02:43:20;4.28;;;1.30;;
44973;SDS011;60981;50.720;11.342;2022-07-15T02:44:24;4.45;;;1.55;;
44973;SDS011;60981;50.720;11.342;2022-07-15T02:45:26;5.68;;;1.60;;
44973;SDS011;60981;50.720;11.342;2022-07-15T02:46:31;7.93;;;1.58;;
44973;SDS011;60981;50.720;11.342;2022-07-15T02:47:34;6.03;;;1.20;;
44973;SDS011;60981;50.720;11.342;2022-07-15T02:48:37;4.28;;;1.10;;
44973;SDS011;60981;50.720;11.342;2022-07-15T02:49:40;4.75;;;1.20;;
44973;SDS011;60981;50.720;11.342;2022-07-15T02:50:43;3.72;;;1.17;;
44973;SDS011;60981;50.720;11.342;2022-07-15T02:51:45;5.00;;;1.25;;
44973;SDS011;60981;50.720;11.342;2022-07-15T02:52:48;5.82;;;1.92;;
44973;SDS011;60981;50.720;11.342;2022-07-15T02:53:52;7.15;;;2.10;;
44973;SDS011;60981;50.720;11.342;2022-07-15T02:55:56;4.80;;;1.10;;
44973;SDS011;60981;50.720;11.342;2022-07-15T02:57:01;7.80;;;1.08;;
44973;SDS011;60981;50.720;11.342;2022-07-15T02:58:03;5.50;;;1.05;;
44973;SDS011;60981;50.720;11.342;2022-07-15T02:59:05;3.30;;;1.00;;
44973;SDS011;60981;50.720;11.342;2022-07-15T03:00:09;2.85;;;0.93;;
44973;SDS011;60981;50.720;11.342;2022-07-15T03:01:14;3.35;;;1.10;;
44973;SDS011;60981;50.720;11.342;2022-07-15T03:02:17;4.22;;;1.13;;
44973;SDS011;60981;50.720;11.342;2022-07-15T03:03:20;3.00;;;1.08;;
44973;SDS011;60981;50.720;11.342;2022-07-15T03:04:22;5.05;;;1.15;;
44973;SDS011;60981;50.720;11.342;2022-07-15T03:05:24;5.57;;;1.23;;
44973;SDS011;60981;50.720;11.342;2022-07-15T03:06:27;5.00;;;1.40;;
44973;SDS011;60981;50.720;11.342;2022-07-15T03:07:29;5.93;;;1.48;;
44973;SDS011;60981;50.720;11.342;2022-07-15T03:08:31;5.28;;;1.55;;
44973;SDS011;60981;50.720;11.342;2022-07-15T03:09:33;3.90;;;1.38;;
44973;SDS011;60981;50.720;11.342;2022-07-15T03:10:37;4.60;;;1.40;;
44973;SDS011;60981;50.720;11.342;2022-07-15T03:11:40;3.92;;;1.10;;
44973;SDS011;60981;50.720;11.342;2022-07-15T03:12:42;3.75;;;1.10;;
44973;SDS011;60981;50.720;11.342;2022-07-15T03:13:44;3.85;;;1.10;;
44973;SDS011;60981;50.720;11.342;2022-07-15T03:14:46;3.38;;;1.20;;
44973;SDS011;60981;50.720;11.342;2022-07-15T03:15:48;4.28;;;1.13;;
44973;SDS011;60981;50.720;11.342;2022-07-15T03:16:51;5.22;;;1.23;;
44973;SDS011;60981;50.720;11.342;2022-07-15T03:17:53;3.00;;;1.17;;
44973;SDS011;60981;50.720;11.342;2022-07-15T03:18:55;3.25;;;1.13;;
44973;SDS011;60981;50.720;11.342;2022-07-15T03:19:58;6.07;;;1.30;;
44973;SDS011;60981;50.720;11.342;2022-07-15T03:21:00;2.22;;;0.98;;
44973;SDS011;60981;50.720;11.342;2022-07-15T03:22:03;4.45;;;1.20;;
44973;SDS011;60981;50.720;11.342;2022-07-15T03:23:05;4.18;;;1.25;;
44973;SDS011;60981;50.720;11.342;2022-07-15T03:24:08;3.20;;;1.23;;
44973;SDS011;60981;50.720;11.342;2022-07-15T03:25:12;3.42;;;1.20;;
44973;SDS011;60981;50.720;11.342;2022-07-15T03:26:14;9.10;;;1.83;;
44973;SDS011;60981;50.720;11.342;2022-07-15T03:27:16;6.72;;;1.60;;
44973;SDS011;60981;50.720;11.342;2022-07-15T03:28:18;4.22;;;1.70;;
44973;SDS011;60981;50.720;11.342;2022-07-15T03:29:21;5.70;;;1.67;;
44973;SDS011;60981;50.720;11.342;2022-07-15T03:30:23;3.90;;;1.60;;
44973;SDS011;60981;50.720;11.342;2022-07-15T03:31:25;3.33;;;1.45;;
44973;SDS011;60981;50.720;11.342;2022-07-15T03:32:28;5.50;;;1.65;;
44973;SDS011;60981;50.720;11.342;2022-07-15T03:33:30;6.95;;;1.60;;
44973;SDS011;60981;50.720;11.342;2022-07-15T03:34:33;3.08;;;1.30;;
44973;SDS011;60981;50.720;11.342;2022-07-15T03:35:35;5.85;;;1.23;;
44973;SDS011;60981;50.720;11.342;2022-07-15T03:36:38;3.90;;;1.70;;
44973;SDS011;60981;50.720;11.342;2022-07-15T03:37:41;5.22;;;1.27;;
44973;SDS011;60981;50.720;11.342;2022-07-15T03:38:44;4.38;;;1.23;;
44973;SDS011;60981;50.720;11.342;2022-07-15T03:39:46;4.90;;;1.50;;
44973;SDS011;60981;50.720;11.342;2022-07-15T03:40:48;6.50;;;1.20;;
44973;SDS011;60981;50.720;11.342;2022-07-15T03:41:50;6.72;;;1.50;;
44973;SDS011;60981;50.720;11.342;2022-07-15T03:42:53;6.95;;;1.88;;
44973;SDS011;60981;50.720;11.342;2022-07-15T03:43:55;4.28;;;1.50;;
44973;SDS011;60981;50.720;11.342;2022-07-15T03:44:58;5.43;;;1.60;;
44973;SDS011;60981;50.720;11.342;2022-07-15T03:46:00;4.18;;;1.48;;
44973;SDS011;60981;50.720;11.342;2022-07-15T03:47:03;3.88;;;1.20;;
44973;SDS011;60981;50.720;11.342;2022-07-15T03:48:05;3.60;;;1.30;;
44973;SDS011;60981;50.720;11.342;2022-07-15T03:49:07;4.13;;;1.30;;
44973;SDS011;60981;50.720;11.342;2022-07-15T03:50:09;2.78;;;1.30;;
44973;SDS011;60981;50.720;11.342;2022-07-15T03:51:14;4.07;;;1.10;;
44973;SDS011;60981;50.720;11.342;2022-07-15T03:52:17;4.55;;;1.20;;
44973;SDS011;60981;50.720;11.342;2022-07-15T03:53:19;3.08;;;1.15;;
44973;SDS011;60981;50.720;11.342;2022-07-15T03:54:21;2.72;;;1.10;;
44973;SDS011;60981;50.720;11.342;2022-07-15T03:55:23;3.28;;;1.15;;
44973;SDS011;60981;50.720;11.342;2022-07-15T03:56:25;4.47;;;1.45;;
44973;SDS011;60981;50.720;11.342;2022-07-15T03:57:28;4.28;;;1.50;;
44973;SDS011;60981;50.720;11.342;2022-07-15T03:58:31;3.38;;;1.10;;
44973;SDS011;60981;50.720;11.342;2022-07-15T03:59:33;4.57;;;1.73;;
44973;SDS011;60981;50.720;11.342;2022-07-15T04:00:35;5.72;;;1.50;;
44973;SDS011;60981;50.720;11.342;2022-07-15T04:01:37;3.30;;;1.40;;
44973;SDS011;60981;50.720;11.342;2022-07-15T04:02:39;5.03;;;1.50;;
44973;SDS011;60981;50.720;11.342;2022-07-15T04:03:48;3.13;;;1.10;;
44973;SDS011;60981;50.720;11.342;2022-07-15T04:04:51;4.65;;;1.30;;
44973;SDS011;60981;50.720;11.342;2022-07-15T04:05:54;3.15;;;1.08;;
44973;SDS011;60981;50.720;11.342;2022-07-15T04:06:56;4.00;;;1.10;;
44973;SDS011;60981;50.720;11.342;2022-07-15T04:08:00;3.70;;;1.15;;
44973;SDS011;60981;50.720;11.342;2022-07-15T04:09:03;3.53;;;1.23;;
44973;SDS011;60981;50.720;11.342;2022-07-15T04:10:05;5.43;;;1.88;;
44973;SDS011;60981;50.720;11.342;2022-07-15T04:11:08;5.55;;;1.70;;
44973;SDS011;60981;50.720;11.342;2022-07-15T04:12:11;3.63;;;1.50;;
44973;SDS011;60981;50.720;11.342;2022-07-15T04:13:14;4.70;;;1.50;;
44973;SDS011;60981;50.720;11.342;2022-07-15T04:14:21;2.72;;;1.20;;
44973;SDS011;60981;50.720;11.342;2022-07-15T04:15:24;5.38;;;1.35;;
44973;SDS011;60981;50.720;11.342;2022-07-15T04:16:26;5.63;;;1.50;;
44973;SDS011;60981;50.720;11.342;2022-07-15T04:17:29;3.88;;;1.33;;
44973;SDS011;60981;50.720;11.342;2022-07-15T04:18:31;3.42;;;1.20;;
44973;SDS011;60981;50.720;11.342;2022-07-15T04:19:35;4.00;;;1.30;;
44973;SDS011;60981;50.720;11.342;2022-07-15T04:20:37;6.15;;;1.30;;
44973;SDS011;60981;50.720;11.342;2022-07-15T04:21:39;4.07;;;1.23;;
44973;SDS011;60981;50.720;11.342;2022-07-15T04:22:43;3.78;;;1.20;;
44973;SDS011;60981;50.720;11.342;2022-07-15T04:23:47;3.50;;;1.00;;
44973;SDS011;60981;50.720;11.342;2022-07-15T04:24:50;5.53;;;1.20;;
44973;SDS011;60981;50.720;11.342;2022-07-15T04:25:52;4.88;;;1.23;;
44973;SDS011;60981;50.720;11.342;2022-07-15T04:26:55;3.38;;;1.30;;
44973;SDS011;60981;50.720;11.342;2022-07-15T04:27:59;3.92;;;1.75;;
44973;SDS011;60981;50.720;11.342;2022-07-15T04:30:07;5.80;;;1.63;;
44973;SDS011;60981;50.720;11.342;2022-07-15T04:31:10;4.63;;;1.25;;
44973;SDS011;60981;50.720;11.342;2022-07-15T04:32:13;5.82;;;1.30;;
44973;SDS011;60981;50.720;11.342;2022-07-15T04:33:15;3.97;;;1.30;;
44973;SDS011;60981;50.720;11.342;2022-07-15T04:34:17;3.42;;;1.27;;
44973;SDS011;60981;50.720;11.342;2022-07-15T04:35:19;5.90;;;1.20;;
44973;SDS011;60981;50.720;11.342;2022-07-15T04:36:22;4.20;;;1.30;;
44973;SDS011;60981;50.720;11.342;2022-07-15T04:37:23;3.88;;;1.30;;
44973;SDS011;60981;50.720;11.342;2022-07-15T04:39:28;4.22;;;1.30;;
44973;SDS011;60981;50.720;11.342;2022-07-15T04:40:31;6.05;;;1.27;;
44973;SDS011;60981;50.720;11.342;2022-07-15T04:41:34;4.85;;;1.30;;
44973;SDS011;60981;50.720;11.342;2022-07-15T04:42:36;3.03;;;1.35;;
44973;SDS011;60981;50.720;11.342;2022-07-15T04:43:39;4.60;;;1.33;;
44973;SDS011;60981;50.720;11.342;2022-07-15T04:44:42;5.50;;;1.40;;
44973;SDS011;60981;50.720;11.342;2022-07-15T04:45:44;4.13;;;1.23;;
44973;SDS011;60981;50.720;11.342;2022-07-15T04:46:47;2.65;;;0.98;;
44973;SDS011;60981;50.720;11.342;2022-07-15T04:47:49;6.72;;;1.75;;
